Time;durP1;ratioP1;P1;durP2;ratioP2;P2;SDS_P1;SDS_P2;PMS_P1;PMS_P2;Temp;Humidity;BMP_temperature;BMP_pressure;BME280_temperature;BME280_humidity;BME280_pressure;Samples;Min_cycle;Max_cycle;Signal;HPM_P1;HPM_P2
2023/08/31 00:00:53;;;;;;;5.32;2.15;;;11.20;99.90;;;;;;4999782;28;20096;-81
2023/08/31 00:03:19;;;;;;;5.07;2.00;;;11.30;99.90;;;;;;4984390;28;20053;-81
2023/08/31 00:05:46;;;;;;;4.88;1.95;;;11.20;99.90;;;;;;5015731;28;20050;-82
2023/08/31 00:08:13;;;;;;;6.05;1.85;;;11.20;99.90;;;;;;4983950;28;20050;-81
2023/08/31 00:10:40;;;;;;;7.20;1.90;;;11.20;99.90;;;;;;4969517;28;20054;-81
2023/08/31 00:13:07;;;;;;;5.97;2.00;;;11.10;99.90;;;;;;4977212;28;20054;-81
2023/08/31 00:15:35;;;;;;;6.22;2.20;;;11.10;99.90;;;;;;4977391;28;20523;-81
2023/08/31 00:18:06;;;;;;;6.32;2.03;;;11.10;99.90;;;;;;4945853;28;20050;-81
2023/08/31 00:20:33;;;;;;;6.38;2.05;;;11.10;99.90;;;;;;4958283;29;20420;-81
2023/08/31 00:23:01;;;;;;;4.50;2.10;;;11.10;99.90;;;;;;4957871;29;20043;-81
2023/08/31 00:25:28;;;;;;;6.97;1.67;;;11.10;99.90;;;;;;4973695;29;20039;-81
2023/08/31 00:27:56;;;;;;;3.75;1.80;;;11.10;99.90;;;;;;4958214;29;20408;-81
2023/08/31 00:30:29;;;;;;;3.90;1.95;;;11.00;99.90;;;;;;4926846;29;20464;-81
2023/08/31 00:33:00;;;;;;;4.13;1.73;;;11.00;99.90;;;;;;4928597;29;20039;-81
2023/08/31 00:35:27;;;;;;;7.28;2.08;;;11.00;99.90;;;;;;4927293;29;20035;-81
2023/08/31 00:37:58;;;;;;;5.32;1.85;;;11.00;99.90;;;;;;4990964;28;20046;-81
2023/08/31 00:40:25;;;;;;;4.75;2.00;;;11.00;99.90;;;;;;4961867;28;20043;-81
2023/08/31 00:42:52;;;;;;;8.60;1.92;;;11.00;99.90;;;;;;4945394;28;20555;-81
2023/08/31 00:45:19;;;;;;;5.80;1.83;;;10.90;99.90;;;;;;4961044;28;20134;-82
2023/08/31 00:47:49;;;;;;;5.65;1.90;;;10.90;99.90;;;;;;4948209;29;20495;-82
2023/08/31 00:50:16;;;;;;;6.10;1.85;;;10.90;99.90;;;;;;4957888;29;20039;-81
2023/08/31 00:52:47;;;;;;;4.13;2.03;;;10.90;99.90;;;;;;4957794;29;20388;-81
2023/08/31 00:55:14;;;;;;;4.10;1.90;;;10.90;99.90;;;;;;4942801;29;20441;-81
2023/08/31 00:57:41;;;;;;;5.60;1.75;;;10.90;99.90;;;;;;4941534;29;20044;-81
2023/08/31 01:00:09;;;;;;;7.93;1.80;;;10.90;99.90;;;;;;4961899;29;20074;-81
2023/08/31 01:03:00;;;;;;;3.35;1.90;;;10.90;99.90;;;;;;4925581;29;20039;-81
2023/08/31 01:05:43;;;;;;;4.10;1.85;;;10.90;99.90;;;;;;4953922;29;20047;-82
2023/08/31 01:08:33;;;;;;;7.95;1.77;;;10.90;99.90;;;;;;4954706;29;20043;-81
2023/08/31 01:11:17;;;;;;;3.63;1.73;;;10.80;99.90;;;;;;4954205;29;20040;-82
2023/08/31 01:13:51;;;;;;;3.47;1.65;;;10.80;99.90;;;;;;4953814;29;20385;-82
2023/08/31 01:16:20;;;;;;;6.85;1.65;;;10.90;99.90;;;;;;4953869;29;20042;-81
2023/08/31 01:18:47;;;;;;;3.92;1.70;;;10.80;99.90;;;;;;4969485;29;20504;-81
2023/08/31 01:21:19;;;;;;;3.13;1.48;;;10.90;99.90;;;;;;4955950;29;20122;-81
2023/08/31 01:23:58;;;;;;;6.00;1.80;;;10.90;99.90;;;;;;4972002;29;20046;-81
2023/08/31 01:26:25;;;;;;;6.25;2.25;;;10.90;99.90;;;;;;4978412;28;20034;-81
2023/08/31 01:28:52;;;;;;;6.07;1.80;;;10.90;99.90;;;;;;5011439;28;20042;-81
2023/08/31 01:31:20;;;;;;;4.55;1.55;;;10.90;99.90;;;;;;4979178;28;20053;-81
2023/08/31 01:33:47;;;;;;;4.50;1.38;;;10.90;99.90;;;;;;4994992;28;20149;-81
2023/08/31 01:36:31;;;;;;;3.88;1.60;;;10.80;99.90;;;;;;4979381;28;20133;-81
2023/08/31 01:39:20;;;;;;;4.22;1.40;;;10.80;99.90;;;;;;4995156;28;20049;-82
2023/08/31 01:41:55;;;;;;;3.88;1.52;;;10.80;99.90;;;;;;4995209;28;20050;-81
2023/08/31 01:44:23;;;;;;;4.40;1.37;;;10.70;99.90;;;;;;4995018;28;20035;-82
2023/08/31 01:46:56;;;;;;;4.63;1.33;;;10.70;99.90;;;;;;5011001;28;20281;-81
2023/08/31 01:49:23;;;;;;;2.70;1.10;;;10.70;99.90;;;;;;5011412;28;20061;-82
2023/08/31 01:51:50;;;;;;;3.72;1.30;;;10.60;99.90;;;;;;4979010;28;20046;-81
2023/08/31 01:54:16;;;;;;;3.58;1.38;;;10.60;99.90;;;;;;4963040;28;20084;-82
2023/08/31 01:56:43;;;;;;;6.18;1.58;;;10.50;99.90;;;;;;4978716;28;20109;-81
2023/08/31 01:59:10;;;;;;;4.70;1.60;;;10.50;99.90;;;;;;4994579;28;20050;-81
2023/08/31 02:01:36;;;;;;;4.22;1.30;;;10.50;99.90;;;;;;4962845;28;20066;-81
2023/08/31 02:04:03;;;;;;;3.65;1.40;;;10.50;99.90;;;;;;4948018;28;20050;-81
2023/08/31 02:06:30;;;;;;;4.70;1.50;;;10.50;99.90;;;;;;4962849;28;20041;-81
2023/08/31 02:08:56;;;;;;;3.53;1.48;;;10.40;99.90;;;;;;4963031;28;20045;-81
2023/08/31 02:11:23;;;;;;;6.47;1.45;;;10.40;99.90;;;;;;4963054;28;20466;-81
2023/08/31 02:13:50;;;;;;;7.60;1.30;;;10.40;99.90;;;;;;4978515;28;20076;-81
2023/08/31 02:16:16;;;;;;;4.82;1.40;;;10.30;99.90;;;;;;4971408;28;20038;-81
2023/08/31 02:18:43;;;;;;;8.80;2.05;;;10.30;99.90;;;;;;4974909;28;20600;-81
2023/08/31 02:21:10;;;;;;;6.82;1.50;;;10.30;99.90;;;;;;4943419;28;20058;-81
2023/08/31 02:23:36;;;;;;;3.55;1.40;;;10.30;99.90;;;;;;4943465;28;20038;-81
2023/08/31 02:26:03;;;;;;;6.50;1.85;;;10.30;99.90;;;;;;4979714;28;20046;-81
2023/08/31 02:28:30;;;;;;;3.28;1.45;;;10.30;99.90;;;;;;4962794;28;20034;-81
2023/08/31 02:31:01;;;;;;;5.13;1.70;;;10.30;99.90;;;;;;4962537;28;20046;-81
2023/08/31 02:33:28;;;;;;;7.50;1.80;;;10.30;99.90;;;;;;4978410;28;20599;-81
2023/08/31 02:35:55;;;;;;;4.43;1.52;;;10.30;99.90;;;;;;4993687;28;20133;-81
2023/08/31 02:38:22;;;;;;;4.35;1.60;;;10.30;99.90;;;;;;4990469;28;20041;-81
2023/08/31 02:40:50;;;;;;;3.28;1.58;;;10.30;99.90;;;;;;4974676;28;20035;-81
2023/08/31 02:43:16;;;;;;;4.28;1.30;;;10.30;99.90;;;;;;4975066;28;20192;-81
2023/08/31 02:45:43;;;;;;;4.13;1.45;;;10.30;99.90;;;;;;4942849;28;20133;-81
2023/08/31 02:48:10;;;;;;;3.60;1.52;;;10.30;99.90;;;;;;4943602;28;20189;-81
2023/08/31 02:50:37;;;;;;;8.07;1.77;;;10.30;99.90;;;;;;4943013;28;20415;-81
2023/08/31 02:53:05;;;;;;;4.05;1.58;;;10.20;99.90;;;;;;4974505;28;20051;-81
2023/08/31 02:55:34;;;;;;;3.22;1.65;;;10.30;99.90;;;;;;4974750;28;20046;-82
2023/08/31 02:58:01;;;;;;;3.67;1.70;;;10.20;99.90;;;;;;4943303;28;20141;-82
2023/08/31 03:00:28;;;;;;;5.53;1.98;;;10.20;99.90;;;;;;4974910;28;20114;-81
2023/08/31 03:02:55;;;;;;;4.30;1.80;;;10.20;99.90;;;;;;4943301;28;20035;-81
2023/08/31 03:05:21;;;;;;;6.95;1.92;;;10.20;99.90;;;;;;4994385;28;20038;-81
2023/08/31 03:07:48;;;;;;;4.10;1.90;;;10.20;99.90;;;;;;4962180;28;20042;-81
2023/08/31 03:10:15;;;;;;;4.18;1.85;;;10.20;99.90;;;;;;4994090;28;20077;-81
2023/08/31 03:12:41;;;;;;;5.35;1.90;;;10.20;99.90;;;;;;4961906;28;20046;-81
2023/08/31 03:15:08;;;;;;;6.50;2.00;;;10.10;99.90;;;;;;4962188;28;20043;-81
2023/08/31 03:17:35;;;;;;;5.90;2.22;;;10.10;99.90;;;;;;4975337;28;20451;-81
2023/08/31 03:20:03;;;;;;;6.03;2.08;;;10.10;99.90;;;;;;4973924;28;20050;-81
2023/08/31 03:22:30;;;;;;;6.72;2.53;;;10.10;99.90;;;;;;4955163;29;20047;-81
2023/08/31 03:24:57;;;;;;;5.65;2.33;;;10.10;99.90;;;;;;4924072;29;20035;-81
2023/08/31 03:27:25;;;;;;;6.57;1.92;;;10.10;99.90;;;;;;4971278;29;20043;-81
2023/08/31 03:29:52;;;;;;;7.55;2.50;;;10.20;99.90;;;;;;4955276;29;20054;-81
2023/08/31 03:32:19;;;;;;;5.05;2.20;;;10.10;99.90;;;;;;4924329;29;20042;-81
2023/08/31 03:34:45;;;;;;;6.15;2.70;;;10.20;99.90;;;;;;4970708;29;20039;-81
2023/08/31 03:37:12;;;;;;;8.23;2.95;;;10.10;99.90;;;;;;4923916;29;20452;-81
2023/08/31 03:39:41;;;;;;;5.93;2.50;;;10.10;99.90;;;;;;4939424;29;20400;-81
2023/08/31 03:42:07;;;;;;;5.60;2.60;;;10.20;99.90;;;;;;4955416;29;20090;-81
2023/08/31 03:44:35;;;;;;;7.13;2.63;;;10.20;99.90;;;;;;4923734;29;20555;-81
2023/08/31 03:47:02;;;;;;;4.88;2.63;;;10.20;99.90;;;;;;4924173;29;20617;-81
2023/08/31 03:49:30;;;;;;;5.03;2.55;;;10.30;99.90;;;;;;4932792;28;20046;-81
2023/08/31 03:51:56;;;;;;;6.78;2.88;;;10.30;99.90;;;;;;4945787;29;20057;-81
2023/08/31 03:54:23;;;;;;;4.85;2.80;;;10.40;99.90;;;;;;4927567;29;20062;-83
2023/08/31 03:56:50;;;;;;;9.45;2.85;;;10.40;99.90;;;;;;4927384;29;20051;-83
2023/08/31 03:59:16;;;;;;;6.85;2.90;;;10.40;99.90;;;;;;4958551;29;20050;-82
2023/08/31 04:01:43;;;;;;;6.88;3.00;;;10.40;99.90;;;;;;4945476;28;20043;-82
2023/08/31 04:04:10;;;;;;;6.93;3.20;;;10.40;99.90;;;;;;4961585;28;20042;-82
2023/08/31 04:06:36;;;;;;;7.72;3.20;;;10.40;99.90;;;;;;4961899;28;20046;-82
2023/08/31 04:09:04;;;;;;;7.82;3.50;;;10.40;99.90;;;;;;4977385;28;20512;-82
2023/08/31 04:11:30;;;;;;;6.70;3.30;;;10.40;99.90;;;;;;4980943;29;20126;-82
2023/08/31 04:13:57;;;;;;;10.00;3.65;;;10.40;99.90;;;;;;4926830;29;20158;-82
2023/08/31 04:16:24;;;;;;;8.75;3.75;;;10.40;99.90;;;;;;4926991;29;20049;-82
2023/08/31 04:18:51;;;;;;;7.00;3.70;;;10.30;99.90;;;;;;4942117;29;20049;-82
2023/08/31 04:21:18;;;;;;;8.18;3.83;;;10.40;99.90;;;;;;4933879;28;20117;-82
2023/08/31 04:23:45;;;;;;;11.10;3.92;;;10.40;99.90;;;;;;4995884;28;20085;-82
2023/08/31 04:26:13;;;;;;;6.85;3.97;;;10.40;99.90;;;;;;4980754;28;20132;-82
2023/08/31 04:28:41;;;;;;;7.93;3.90;;;10.40;99.90;;;;;;4996741;28;20086;-82
2023/08/31 04:31:08;;;;;;;9.80;4.05;;;10.50;99.90;;;;;;4996223;28;20115;-83
2023/08/31 04:33:35;;;;;;;7.65;3.80;;;10.50;99.90;;;;;;4980296;28;20526;-82
2023/08/31 04:36:03;;;;;;;9.02;4.03;;;10.50;99.90;;;;;;4995978;28;20038;-82
2023/08/31 04:38:31;;;;;;;8.20;4.63;;;10.50;99.90;;;;;;4980259;28;20054;-82
2023/08/31 04:40:59;;;;;;;8.45;3.80;;;10.60;99.90;;;;;;4995827;28;20122;-82
2023/08/31 04:43:27;;;;;;;7.43;3.90;;;10.60;99.90;;;;;;4965935;28;20061;-82
2023/08/31 04:45:54;;;;;;;8.98;3.53;;;10.60;99.90;;;;;;4992427;28;20038;-82
2023/08/31 04:48:21;;;;;;;6.57;3.67;;;10.60;99.90;;;;;;4945130;28;20046;-83
2023/08/31 04:50:48;;;;;;;9.15;3.75;;;10.70;99.90;;;;;;4992888;28;20046;-83
2023/08/31 04:53:15;;;;;;;6.45;4.13;;;10.60;99.90;;;;;;4955020;28;20507;-83
2023/08/31 04:55:41;;;;;;;7.03;3.58;;;10.60;99.90;;;;;;4964447;28;20050;-83
2023/08/31 04:58:08;;;;;;;8.65;3.92;;;10.60;99.90;;;;;;4963554;28;20050;-83
2023/08/31 05:00:35;;;;;;;6.00;3.70;;;10.50;99.90;;;;;;4964295;28;20042;-82
2023/08/31 05:03:02;;;;;;;6.32;3.53;;;10.50;99.90;;;;;;4975666;28;20399;-82
2023/08/31 05:05:29;;;;;;;6.78;3.72;;;10.50;99.90;;;;;;4976521;28;20389;-83
2023/08/31 05:07:55;;;;;;;8.25;3.88;;;10.60;99.90;;;;;;4945205;28;20042;-83
2023/08/31 05:10:22;;;;;;;6.35;3.90;;;10.70;99.90;;;;;;4992530;28;20043;-83
2023/08/31 05:12:49;;;;;;;8.30;4.00;;;10.70;99.90;;;;;;4944577;28;20093;-83
2023/08/31 05:15:16;;;;;;;6.78;3.95;;;10.70;99.90;;;;;;4976462;28;20125;-83
2023/08/31 05:17:43;;;;;;;7.82;4.07;;;10.80;99.90;;;;;;4945238;28;20041;-83
2023/08/31 05:20:10;;;;;;;8.20;4.55;;;10.90;99.90;;;;;;4944450;28;20043;-83
2023/08/31 05:22:37;;;;;;;5.22;3.50;;;10.90;99.90;;;;;;4941210;29;20051;-83
2023/08/31 05:25:04;;;;;;;7.53;4.30;;;11.00;99.90;;;;;;4956925;29;20049;-83
2023/08/31 05:27:31;;;;;;;8.52;4.70;;;11.00;99.90;;;;;;4956971;29;20098;-83
2023/08/31 05:29:57;;;;;;;8.52;4.50;;;11.10;99.90;;;;;;4956700;29;20047;-83
2023/08/31 05:32:27;;;;;;;10.35;4.63;;;11.10;99.90;;;;;;4941070;29;20050;-83
2023/08/31 05:34:54;;;;;;;8.65;4.65;;;11.10;99.90;;;;;;4972613;29;20118;-83
2023/08/31 05:37:20;;;;;;;7.03;4.50;;;11.20;99.90;;;;;;4956618;29;20039;-83
2023/08/31 05:39:49;;;;;;;9.07;4.32;;;11.20;99.90;;;;;;4956618;29;20404;-83
2023/08/31 05:42:16;;;;;;;9.40;4.57;;;11.10;99.90;;;;;;4972101;29;20040;-83
2023/08/31 05:44:43;;;;;;;9.10;4.95;;;11.20;99.90;;;;;;4972399;29;20046;-83
2023/08/31 05:47:10;;;;;;;9.00;4.60;;;11.10;99.90;;;;;;4956646;29;20114;-83
2023/08/31 05:49:36;;;;;;;7.88;4.60;;;11.10;99.90;;;;;;4972416;29;20588;-83
2023/08/31 05:52:03;;;;;;;9.88;4.38;;;11.10;99.90;;;;;;4972403;29;20046;-83
2023/08/31 05:54:31;;;;;;;7.32;4.75;;;11.10;99.90;;;;;;4956696;29;20051;-83
2023/08/31 05:56:57;;;;;;;11.13;4.65;;;11.10;99.90;;;;;;4971217;28;20046;-83
2023/08/31 05:59:24;;;;;;;6.40;4.68;;;11.10;99.90;;;;;;4959310;28;20130;-82
2023/08/31 06:01:51;;;;;;;9.02;5.00;;;11.10;99.90;;;;;;4975717;28;20506;-83
2023/08/31 06:04:18;;;;;;;9.07;4.93;;;11.10;99.90;;;;;;4975379;28;20043;-83
2023/08/31 06:06:44;;;;;;;8.23;4.68;;;11.10;99.90;;;;;;4959368;28;20039;-83
2023/08/31 06:09:11;;;;;;;9.23;5.05;;;11.10;99.90;;;;;;4974993;28;20050;-83
2023/08/31 06:11:39;;;;;;;10.00;5.60;;;11.20;99.90;;;;;;4959093;28;20510;-83
2023/08/31 06:14:05;;;;;;;12.02;4.95;;;11.10;99.90;;;;;;4991187;28;20086;-83
2023/08/31 06:16:32;;;;;;;8.95;5.00;;;11.10;99.90;;;;;;4956518;28;20097;-84
2023/08/31 06:18:59;;;;;;;10.18;5.07;;;11.20;99.90;;;;;;4955853;29;20043;-83
2023/08/31 06:21:25;;;;;;;14.77;5.28;;;11.20;99.90;;;;;;4955491;28;20039;-84
2023/08/31 06:23:52;;;;;;;10.18;5.40;;;11.30;99.90;;;;;;4943198;28;20137;-85
2023/08/31 06:26:19;;;;;;;10.32;5.32;;;11.30;99.90;;;;;;4974741;28;20443;-85
2023/08/31 06:28:45;;;;;;;9.40;5.75;;;11.40;99.90;;;;;;4945887;28;20046;-85
2023/08/31 06:31:12;;;;;;;11.20;5.28;;;11.40;99.90;;;;;;4974334;28;20507;-85
2023/08/31 06:33:39;;;;;;;9.70;6.00;;;11.40;99.90;;;;;;4974867;28;20047;-85
2023/08/31 06:36:06;;;;;;;11.20;4.95;;;11.50;99.90;;;;;;4971057;28;20053;-85
2023/08/31 06:38:32;;;;;;;11.25;5.50;;;11.50;99.90;;;;;;4975678;28;20034;-85
2023/08/31 06:41:01;;;;;;;9.82;5.65;;;11.60;99.90;;;;;;4943620;28;20043;-85
2023/08/31 06:43:28;;;;;;;7.80;4.90;;;11.70;99.90;;;;;;4994517;28;20053;-85
2023/08/31 06:45:55;;;;;;;11.55;5.38;;;11.70;99.90;;;;;;4974607;28;20039;-85
2023/08/31 06:48:21;;;;;;;9.05;5.18;;;11.80;99.90;;;;;;4967497;28;20042;-85
2023/08/31 06:50:48;;;;;;;12.63;5.50;;;11.90;99.90;;;;;;4943515;28;20042;-85
2023/08/31 06:53:15;;;;;;;10.57;5.55;;;11.90;99.90;;;;;;4958636;28;20196;-85
2023/08/31 06:55:41;;;;;;;9.35;4.80;;;12.00;99.90;;;;;;4958649;28;20062;-85
2023/08/31 06:58:08;;;;;;;8.90;4.80;;;12.10;99.90;;;;;;4974537;28;20183;-85
2023/08/31 07:00:35;;;;;;;9.40;4.50;;;12.10;99.90;;;;;;4980682;28;20034;-85
2023/08/31 07:03:02;;;;;;;7.15;3.97;;;12.20;99.90;;;;;;4993899;28;20035;-85
2023/08/31 07:05:35;;;;;;;10.52;4.22;;;12.30;99.90;;;;;;4949544;28;20045;-87
2023/08/31 07:08:02;;;;;;;9.63;4.18;;;12.30;99.90;;;;;;4975196;28;20098;-87
2023/08/31 07:10:29;;;;;;;7.88;4.38;;;12.40;99.90;;;;;;4974255;28;20098;-87
2023/08/31 07:12:56;;;;;;;7.03;4.28;;;12.50;99.90;;;;;;4974448;28;20491;-85
2023/08/31 07:15:22;;;;;;;8.82;3.85;;;12.60;99.90;;;;;;4974415;28;20459;-86
2023/08/31 07:17:49;;;;;;;7.25;3.63;;;12.70;99.90;;;;;;4974578;28;20115;-85
2023/08/31 07:20:16;;;;;;;7.75;3.80;;;12.80;99.90;;;;;;4958053;28;20065;-85
2023/08/31 07:22:42;;;;;;;6.72;3.22;;;12.90;99.90;;;;;;4977550;28;20125;-86
2023/08/31 07:25:09;;;;;;;6.10;3.10;;;13.00;99.90;;;;;;4978477;28;20051;-86
2023/08/31 07:27:36;;;;;;;5.85;3.20;;;13.10;99.90;;;;;;4978086;28;20088;-85
2023/08/31 07:30:04;;;;;;;7.70;3.03;;;13.20;99.90;;;;;;4962400;28;20587;-83
2023/08/31 07:32:31;;;;;;;7.53;3.10;;;13.20;99.90;;;;;;4978058;28;20054;-81
2023/08/31 07:34:59;;;;;;;5.57;2.40;;;13.40;99.90;;;;;;4977809;28;20050;-85
2023/08/31 07:37:26;;;;;;;3.95;2.22;;;13.40;99.90;;;;;;4977950;28;20039;-86
2023/08/31 07:39:53;;;;;;;6.85;2.55;;;13.50;99.90;;;;;;4977733;28;20054;-85
2023/08/31 07:42:19;;;;;;;7.40;2.10;;;13.60;99.90;;;;;;4961698;28;20042;-85
2023/08/31 07:44:46;;;;;;;3.80;2.00;;;13.70;99.90;;;;;;4961853;28;20873;-85
2023/08/31 07:47:13;;;;;;;5.43;2.13;;;13.80;99.90;;;;;;4978175;28;20120;-85
2023/08/31 07:49:40;;;;;;;5.65;1.90;;;13.90;99.90;;;;;;4961596;28;20046;-85
2023/08/31 07:52:06;;;;;;;6.68;1.77;;;14.00;99.90;;;;;;4993377;28;20047;-85
2023/08/31 07:54:33;;;;;;;5.55;1.80;;;14.00;99.90;;;;;;4961668;28;20034;-85
2023/08/31 07:57:00;;;;;;;5.57;1.55;;;14.20;99.90;;;;;;4977543;28;20043;-85
2023/08/31 07:59:27;;;;;;;6.43;1.67;;;14.30;99.90;;;;;;4977195;28;20126;-86
2023/08/31 08:01:54;;;;;;;6.57;1.70;;;14.40;99.90;;;;;;4977650;28;20046;-85
2023/08/31 08:04:20;;;;;;;3.30;1.38;;;14.40;99.90;;;;;;4977221;28;20389;-85
2023/08/31 08:06:50;;;;;;;4.50;1.40;;;14.40;99.90;;;;;;4977470;28;20035;-86
2023/08/31 08:09:17;;;;;;;3.47;1.23;;;14.30;99.90;;;;;;4977007;28;20050;-86
2023/08/31 08:11:44;;;;;;;3.15;1.10;;;14.40;99.90;;;;;;4977214;28;20051;-85
2023/08/31 08:14:11;;;;;;;4.75;1.40;;;14.40;99.90;;;;;;4977334;28;20049;-85
2023/08/31 08:16:38;;;;;;;5.35;1.20;;;14.40;99.90;;;;;;4977349;28;20050;-86
2023/08/31 08:19:06;;;;;;;6.28;1.35;;;14.60;99.90;;;;;;4961374;28;20047;-85
2023/08/31 08:21:33;;;;;;;4.65;1.10;;;14.70;99.90;;;;;;4992877;28;20097;-86
2023/08/31 08:24:00;;;;;;;3.75;1.10;;;14.80;99.90;;;;;;4977176;28;20396;-86
2023/08/31 08:26:27;;;;;;;4.90;1.02;;;15.00;99.90;;;;;;4976740;28;20051;-85
2023/08/31 08:28:53;;;;;;;6.82;1.00;;;15.10;99.90;;;;;;4977056;28;20039;-85
2023/08/31 08:31:20;;;;;;;3.47;1.10;;;15.20;99.90;;;;;;4976837;28;20054;-86
2023/08/31 08:33:47;;;;;;;2.75;0.85;;;15.30;99.90;;;;;;4975989;28;20061;-86
2023/08/31 08:36:13;;;;;;;4.90;1.05;;;15.40;99.90;;;;;;4977110;28;20051;-85
2023/08/31 08:38:40;;;;;;;4.63;0.82;;;15.50;99.90;;;;;;4976913;28;20043;-85
2023/08/31 08:41:07;;;;;;;5.78;0.98;;;15.60;99.90;;;;;;4977363;28;20093;-85
2023/08/31 08:43:35;;;;;;;5.25;0.93;;;15.70;99.90;;;;;;4961160;28;20046;-86
2023/08/31 08:46:06;;;;;;;2.08;0.60;;;15.70;99.90;;;;;;4961542;28;20043;-86
2023/08/31 08:48:34;;;;;;;1.25;0.70;;;15.90;99.90;;;;;;4960891;28;20140;-85
2023/08/31 08:51:03;;;;;;;2.40;0.65;;;15.90;99.90;;;;;;4960663;28;20057;-85
2023/08/31 08:53:39;;;;;;;4.50;0.80;;;16.00;99.90;;;;;;4992156;28;20141;-86
2023/08/31 08:56:06;;;;;;;3.10;0.80;;;16.10;99.90;;;;;;4977246;28;20051;-86
2023/08/31 08:58:33;;;;;;;4.60;0.90;;;16.10;99.90;;;;;;4976166;28;20046;-84
2023/08/31 09:00:59;;;;;;;3.28;0.80;;;16.30;99.90;;;;;;4976363;28;20043;-84
2023/08/31 09:03:26;;;;;;;4.43;0.85;;;16.50;99.90;;;;;;4976775;28;20137;-84
2023/08/31 09:05:53;;;;;;;3.47;0.68;;;16.50;99.90;;;;;;4976206;28;20039;-85
2023/08/31 09:08:27;;;;;;;2.13;0.75;;;16.50;99.90;;;;;;4976535;28;20039;-85
2023/08/31 09:10:59;;;;;;;7.50;1.00;;;16.50;99.90;;;;;;4976146;28;20117;-84
2023/08/31 09:13:31;;;;;;;4.05;0.77;;;16.40;99.90;;;;;;4976272;28;20514;-84
2023/08/31 09:15:57;;;;;;;3.13;0.55;;;16.40;99.90;;;;;;4976943;28;20073;-84
2023/08/31 09:18:29;;;;;;;2.63;0.70;;;16.50;99.90;;;;;;4960283;28;20051;-84
2023/08/31 09:20:56;;;;;;;3.10;0.68;;;16.40;99.90;;;;;;4976437;28;20037;-84
2023/08/31 09:23:23;;;;;;;2.70;0.80;;;16.50;99.90;;;;;;4972968;29;20063;-84
2023/08/31 09:25:53;;;;;;;1.98;0.70;;;16.50;99.90;;;;;;4941361;29;20101;-84
2023/08/31 09:28:22;;;;;;;2.33;0.65;;;16.40;99.90;;;;;;4941330;29;20079;-84
2023/08/31 09:30:50;;;;;;;5.00;0.82;;;16.40;99.90;;;;;;4971838;29;20130;-85
2023/08/31 09:33:20;;;;;;;2.53;0.80;;;16.70;99.90;;;;;;4941579;29;20039;-84
2023/08/31 09:35:52;;;;;;;5.82;0.90;;;16.90;99.90;;;;;;4972199;29;20043;-83
2023/08/31 09:38:19;;;;;;;3.63;0.88;;;17.00;99.90;;;;;;4988164;29;20039;-83
2023/08/31 09:40:46;;;;;;;3.78;0.88;;;17.10;99.90;;;;;;4972432;29;20515;-84
2023/08/31 09:43:20;;;;;;;2.95;0.77;;;17.30;99.90;;;;;;4956851;29;20039;-83
2023/08/31 09:45:48;;;;;;;2.90;0.88;;;17.30;99.90;;;;;;4955890;29;20075;-84
2023/08/31 09:48:15;;;;;;;4.50;0.70;;;17.20;99.90;;;;;;4972329;29;20039;-84
2023/08/31 09:50:45;;;;;;;2.17;0.70;;;17.20;99.90;;;;;;4972206;29;20036;-84
2023/08/31 09:53:15;;;;;;;3.45;0.75;;;17.20;99.90;;;;;;4956498;29;20039;-84
2023/08/31 09:55:43;;;;;;;1.77;0.68;;;17.10;99.90;;;;;;4972109;29;20043;-84
2023/08/31 09:58:09;;;;;;;3.42;0.90;;;17.00;99.90;;;;;;4972154;29;20405;-84
2023/08/31 10:00:37;;;;;;;1.70;0.70;;;16.90;99.90;;;;;;4956314;29;20047;-83
2023/08/31 10:03:05;;;;;;;5.45;0.88;;;16.30;99.90;;;;;;4956024;29;20050;-83
2023/08/31 10:05:35;;;;;;;3.75;0.80;;;15.70;99.90;;;;;;4972041;29;20519;-83
2023/08/31 10:08:02;;;;;;;1.75;0.77;;;15.60;99.90;;;;;;4940495;29;20043;-83
2023/08/31 10:10:30;;;;;;;1.83;0.70;;;15.20;99.90;;;;;;4940647;29;20047;-83
2023/08/31 10:12:58;;;;;;;2.83;0.68;;;15.10;99.90;;;;;;4940088;29;20051;-83
2023/08/31 10:15:30;;;;;;;2.05;0.65;;;14.90;99.90;;;;;;4942553;29;20050;-84
2023/08/31 10:17:58;;;;;;;1.55;0.52;;;14.70;99.90;;;;;;4971546;29;20134;-84
2023/08/31 10:20:28;;;;;;;2.35;0.60;;;14.70;99.90;;;;;;4940174;29;20085;-84
2023/08/31 10:22:57;;;;;;;2.03;0.65;;;14.60;99.90;;;;;;4976396;28;20067;-83
2023/08/31 10:25:26;;;;;;;3.25;0.65;;;14.60;99.90;;;;;;4975023;28;20043;-84
2023/08/31 10:27:54;;;;;;;2.08;0.43;;;14.70;99.90;;;;;;4974987;28;20039;-85
2023/08/31 10:30:28;;;;;;;3.38;0.60;;;14.80;99.90;;;;;;4959371;28;20562;-83
2023/08/31 10:33:07;;;;;;;0.75;0.47;;;15.10;99.90;;;;;;4990566;28;20062;-84
2023/08/31 10:35:50;;;;;;;1.17;0.60;;;15.50;99.90;;;;;;4990701;28;20613;-84
2023/08/31 10:38:25;;;;;;;1.17;0.50;;;15.60;99.90;;;;;;4943199;28;20105;-84
2023/08/31 10:41:07;;;;;;;1.73;0.60;;;15.60;99.90;;;;;;4990382;28;20046;-84
2023/08/31 10:43:51;;;;;;;1.63;0.70;;;15.50;99.90;;;;;;4990818;28;20046;-83
2023/08/31 10:46:38;;;;;;;3.17;0.70;;;15.60;99.90;;;;;;4990997;28;20042;-84
2023/08/31 10:49:11;;;;;;;1.55;0.60;;;15.80;99.90;;;;;;4964205;28;20058;-84
2023/08/31 10:51:40;;;;;;;3.63;0.77;;;16.10;99.90;;;;;;4990682;28;20133;-84
2023/08/31 10:54:12;;;;;;;1.65;0.60;;;16.40;99.90;;;;;;4974071;28;20518;-84
2023/08/31 10:56:57;;;;;;;1.23;0.60;;;16.60;99.90;;;;;;4974455;28;20042;-84
2023/08/31 10:59:25;;;;;;;1.65;0.73;;;17.00;99.90;;;;;;4990204;28;20051;-84
2023/08/31 11:01:57;;;;;;;1.65;0.60;;;17.10;99.90;;;;;;4974462;28;20507;-84
2023/08/31 11:04:26;;;;;;;2.35;0.70;;;17.10;99.90;;;;;;4974194;28;20039;-83
2023/08/31 11:07:16;;;;;;;1.73;0.57;;;17.10;99.90;;;;;;4974226;28;20117;-84
2023/08/31 11:09:44;;;;;;;0.55;0.40;;;17.30;99.90;;;;;;4974390;28;20416;-84
2023/08/31 11:12:12;;;;;;;2.20;0.70;;;17.30;99.90;;;;;;4958683;28;20038;-84
2023/08/31 11:14:39;;;;;;;2.20;0.70;;;17.50;99.90;;;;;;4974604;28;20050;-84
2023/08/31 11:17:07;;;;;;;0.93;0.50;;;17.80;99.90;;;;;;4974073;28;20518;-84
2023/08/31 11:19:35;;;;;;;1.10;0.60;;;18.10;99.90;;;;;;4974458;28;20050;-84
2023/08/31 11:22:03;;;;;;;2.00;0.75;;;18.10;99.90;;;;;;4942820;28;20496;-84
2023/08/31 11:24:31;;;;;;;1.65;0.52;;;18.10;99.90;;;;;;4958374;28;20570;-84
2023/08/31 11:26:57;;;;;;;1.30;0.60;;;18.20;99.90;;;;;;4958264;28;20053;-84
2023/08/31 11:29:24;;;;;;;2.28;0.77;;;18.30;99.90;;;;;;4974137;28;20043;-84
2023/08/31 11:31:51;;;;;;;2.55;0.80;;;18.50;99.90;;;;;;4989920;28;20415;-83
2023/08/31 11:34:19;;;;;;;1.02;0.50;;;18.70;99.90;;;;;;4963417;28;20129;-85
2023/08/31 11:36:47;;;;;;;2.42;0.80;;;18.80;99.90;;;;;;4959708;28;20077;-85
2023/08/31 11:39:14;;;;;;;2.35;0.60;;;19.00;99.90;;;;;;4942385;28;20058;-85
2023/08/31 11:41:42;;;;;;;3.17;0.80;;;18.80;99.90;;;;;;4974325;28;20043;-84
2023/08/31 11:44:11;;;;;;;1.88;0.63;;;18.50;99.90;;;;;;4989505;28;20456;-85
2023/08/31 11:46:39;;;;;;;3.53;0.70;;;18.10;99.90;;;;;;4989198;28;20047;-84
2023/08/31 11:49:06;;;;;;;2.25;0.80;;;18.10;99.90;;;;;;4993428;28;20037;-84
2023/08/31 11:51:35;;;;;;;1.83;0.63;;;18.30;99.90;;;;;;4993678;28;20039;-84
2023/08/31 11:54:02;;;;;;;2.10;0.70;;;18.40;99.90;;;;;;4948189;28;20042;-84
2023/08/31 11:56:49;;;;;;;1.83;0.68;;;18.30;99.90;;;;;;4984606;28;20055;-84
2023/08/31 11:59:17;;;;;;;0.50;0.47;;;18.40;99.90;;;;;;4974766;28;20126;-84
2023/08/31 12:01:45;;;;;;;1.40;0.60;;;18.60;99.90;;;;;;4966734;28;20046;-84
2023/08/31 12:04:25;;;;;;;2.88;0.90;;;18.60;99.90;;;;;;5002475;28;20042;-85
2023/08/31 12:06:55;;;;;;;2.47;0.90;;;18.80;99.90;;;;;;4982697;28;20042;-84
2023/08/31 12:09:22;;;;;;;3.95;1.08;;;18.80;99.90;;;;;;4965369;28;20054;-84
2023/08/31 12:11:51;;;;;;;1.38;0.70;;;18.90;99.90;;;;;;4961518;28;20043;-84
2023/08/31 12:14:22;;;;;;;2.92;0.75;;;18.90;99.90;;;;;;4977168;28;20047;-84
2023/08/31 12:16:49;;;;;;;2.63;0.70;;;19.00;99.90;;;;;;4963084;29;20411;-84
2023/08/31 12:19:17;;;;;;;1.45;0.60;;;19.00;99.90;;;;;;4990624;28;20407;-84
2023/08/31 12:21:45;;;;;;;2.28;0.77;;;18.70;99.90;;;;;;4987672;28;20039;-84
2023/08/31 12:24:13;;;;;;;2.42;0.60;;;18.60;99.90;;;;;;4970299;28;20573;-84
2023/08/31 12:26:40;;;;;;;1.98;0.63;;;18.30;99.90;;;;;;4983564;28;20118;-83
2023/08/31 12:29:07;;;;;;;2.28;0.65;;;18.10;99.90;;;;;;4976926;28;20039;-84
2023/08/31 12:31:34;;;;;;;2.22;0.70;;;17.90;99.90;;;;;;4961245;28;20046;-84
2023/08/31 12:34:04;;;;;;;3.05;0.80;;;17.80;99.90;;;;;;4945464;28;20487;-84
2023/08/31 12:36:31;;;;;;;3.10;0.77;;;17.50;99.90;;;;;;4946111;28;20053;-84
2023/08/31 12:39:01;;;;;;;3.08;0.90;;;17.30;99.90;;;;;;4977706;28;20602;-84
2023/08/31 12:41:28;;;;;;;1.40;0.60;;;16.90;99.90;;;;;;4992961;28;20474;-84
2023/08/31 12:43:55;;;;;;;2.67;0.70;;;16.60;99.90;;;;;;4981957;28;20089;-84
2023/08/31 12:46:22;;;;;;;2.03;0.65;;;16.40;99.90;;;;;;4946662;28;20039;-84
2023/08/31 12:48:49;;;;;;;1.90;0.63;;;16.20;99.90;;;;;;4952884;28;20912;-84
2023/08/31 12:51:17;;;;;;;2.72;0.90;;;16.00;99.90;;;;;;5000314;28;20070;-84